Time;durP1;ratioP1;P1;durP2;ratioP2;P2;SDS_P1;SDS_P2;PMS_P1;PMS_P2;Temp;Humidity;BMP_temperature;BMP_pressure;BME280_temperature;BME280_humidity;BME280_pressure;Samples;Min_cycle;Max_cycle;Signal;HPM_P1;HPM_P2
2023/01/08 00:07:16;;;;;;;1.23;1.23;;;;;;;9.17;70.83;100819.87;18417434;32;20097;-58
2023/01/08 00:17:21;;;;;;;3.70;2.03;;;;;;;9.24;70.75;100821.69;18425956;32;20741;-58
2023/01/08 00:27:24;;;;;;;1.08;0.95;;;;;;;9.51;69.73;100819.31;18425427;32;20117;-58
2023/01/08 00:37:29;;;;;;;7.32;2.83;;;;;;;9.51;69.99;100804.56;18425128;32;20105;-58
2023/01/08 00:47:32;;;;;;;0.68;0.68;;;;;;;9.58;69.87;100795.06;18425730;32;20092;-58
2023/01/08 00:57:37;;;;;;;2.47;2.28;;;;;;;9.63;69.82;100798.59;18423940;31;20097;-58
2023/01/08 01:07:41;;;;;;;2.20;1.98;;;;;;;9.64;69.76;100810.75;18423891;32;20089;-58
2023/01/08 01:17:46;;;;;;;2.25;2.05;;;;;;;9.63;69.84;100813.34;18423469;32;20093;-58
2023/01/08 01:27:49;;;;;;;0.90;0.90;;;;;;;9.69;69.69;100809.03;18422068;32;20115;-58
2023/01/08 01:37:54;;;;;;;3.53;2.15;;;;;;;8.35;75.10;100795.44;18422674;32;20104;-58
2023/01/08 01:48:00;;;;;;;14.57;2.85;;;;;;;9.30;71.59;100784.38;18423322;32;20145;-58
2023/01/08 01:58:12;;;;;;;1.62;1.20;;;;;;;9.37;71.12;100769.69;18422739;31;20101;-58
2023/01/08 02:08:20;;;;;;;1.85;1.35;;;;;;;9.57;70.63;100752.47;18421416;32;20107;-58
2023/01/08 02:18:29;;;;;;;2.17;1.52;;;;;;;9.77;69.84;100738.72;18421141;32;20089;-58
2023/01/08 02:28:37;;;;;;;1.00;1.00;;;;;;;9.70;70.15;100735.19;18420898;32;20120;-58
2023/01/08 02:38:45;;;;;;;2.53;2.35;;;;;;;9.74;70.02;100723.03;18421095;32;20093;-58
2023/01/08 02:48:53;;;;;;;0.80;0.80;;;;;;;9.72;70.08;100727.38;18419658;32;20101;-58
2023/01/08 02:58:58;;;;;;;3.65;1.08;;;;;;;9.75;70.01;100723.94;18419306;31;20089;-58
2023/01/08 03:09:02;;;;;;;0.50;0.50;;;;;;;9.72;69.91;100706.53;18419722;32;20450;-58
2023/01/08 03:19:08;;;;;;;2.97;2.67;;;;;;;9.81;69.56;100703.09;18418327;32;20111;-58
2023/01/08 03:29:16;;;;;;;0.70;0.70;;;;;;;9.83;69.37;100690.97;18418288;32;20133;-58
2023/01/08 03:39:22;;;;;;;3.95;2.25;;;;;;;9.81;69.29;100688.34;18417634;32;20077;-58
2023/01/08 03:49:29;;;;;;;6.53;2.47;;;;;;;9.78;69.50;100677.00;18421964;32;81968;-58
2023/01/08 03:59:32;;;;;;;0.88;0.88;;;;;;;9.15;72.04;100670.50;18426500;31;20129;-58
2023/01/08 04:09:36;;;;;;;1.12;1.12;;;;;;;9.60;70.17;100668.22;18426059;32;20457;-58
2023/01/08 04:19:39;;;;;;;5.62;3.08;;;;;;;9.81;69.32;100661.38;18425841;32;20111;-58
2023/01/08 04:29:44;;;;;;;0.80;0.80;;;;;;;9.78;69.31;100661.38;18425233;32;20129;-58
2023/01/08 04:39:47;;;;;;;1.45;1.35;;;;;;;9.80;69.09;100660.53;18426434;32;20085;-58
2023/01/08 04:49:52;;;;;;;1.37;1.33;;;;;;;9.81;69.23;100656.16;18424052;32;20123;-58
2023/01/08 04:59:55;;;;;;;0.60;0.60;;;;;;;9.73;69.14;100663.94;18422932;32;20144;-58
2023/01/08 05:09:59;;;;;;;2.83;1.75;;;;;;;9.72;68.99;100670.03;18424530;32;20089;-58
2023/01/08 05:20:02;;;;;;;1.23;1.23;;;;;;;9.63;69.16;100662.16;18424681;32;20106;-58
2023/01/08 05:30:08;;;;;;;1.52;1.42;;;;;;;9.71;69.15;100650.91;18423050;32;20115;-58
2023/01/08 05:40:12;;;;;;;4.90;2.05;;;;;;;9.11;70.36;100646.19;18422809;32;20116;-58
2023/01/08 05:50:17;;;;;;;2.90;2.62;;;;;;;8.53;71.60;100641.31;18422337;32;20102;-58
2023/01/08 06:00:20;;;;;;;1.75;1.65;;;;;;;8.21;73.92;100641.81;18422328;32;20097;-58
2023/01/08 06:10:25;;;;;;;1.15;1.10;;;;;;;8.10;73.74;100632.16;18421132;32;20097;-58
2023/01/08 06:20:28;;;;;;;0.60;0.60;;;;;;;7.98;73.98;100625.09;18421159;32;20111;-58
2023/01/08 06:30:33;;;;;;;1.20;1.20;;;;;;;7.84;74.24;100622.31;18421421;32;20140;-58
2023/01/08 06:40:36;;;;;;;5.90;1.37;;;;;;;8.55;71.66;100611.00;18420265;32;20088;-58
2023/01/08 06:50:40;;;;;;;0.60;0.60;;;;;;;9.08;69.98;100608.81;18419608;32;20085;-58
2023/01/08 07:00:43;;;;;;;1.95;1.58;;;;;;;9.09;69.75;100615.75;18419211;32;20120;-58
2023/01/08 07:10:48;;;;;;;1.85;1.75;;;;;;;9.48;68.55;100619.50;18418840;32;20465;-58
2023/01/08 07:20:52;;;;;;;2.10;2.00;;;;;;;9.41;68.64;100626.41;18422294;32;20085;-58
2023/01/08 07:30:57;;;;;;;1.27;1.15;;;;;;;9.21;68.92;100615.00;18427406;32;20362;-58
2023/01/08 07:41:00;;;;;;;1.15;1.15;;;;;;;8.88;70.47;100599.13;18427589;32;20092;-57
2023/01/08 07:51:07;;;;;;;0.80;0.80;;;;;;;8.40;72.07;100617.75;18426935;32;20504;-58
2023/01/08 08:01:11;;;;;;;2.45;2.25;;;;;;;9.27;68.93;100612.44;18426453;32;20362;-58
2023/01/08 08:11:16;;;;;;;1.65;1.55;;;;;;;8.27;71.91;100608.09;18425465;32;20141;-58
2023/01/08 08:21:19;;;;;;;0.85;0.85;;;;;;;8.52;71.37;100600.53;18420954;32;20097;-58
2023/01/08 08:31:23;;;;;;;1.17;1.10;;;;;;;8.10;72.89;100584.47;18425149;32;20105;-58
2023/01/08 08:41:26;;;;;;;2.05;1.40;;;;;;;7.80;74.28;100570.28;18425247;32;20101;-58
2023/01/08 08:51:31;;;;;;;0.80;0.80;;;;;;;8.07;73.03;100564.53;18425735;32;20089;-58
2023/01/08 09:01:34;;;;;;;4.68;1.15;;;;;;;7.34;76.32;100569.72;18424155;32;20116;-58
2023/01/08 09:11:39;;;;;;;0.90;0.90;;;;;;;7.26;76.40;100568.72;18423985;31;20101;-58
2023/01/08 09:21:42;;;;;;;1.60;1.50;;;;;;;8.30;71.73;100563.88;18423781;32;20125;-57
2023/01/08 09:31:47;;;;;;;1.00;1.00;;;;;;;7.74;73.60;100552.88;18423173;32;20093;-58
2023/01/08 09:41:51;;;;;;;1.33;0.95;;;;;;;7.83;73.26;100542.59;18421912;32;20459;-57
2023/01/08 09:51:56;;;;;;;1.52;1.40;;;;;;;7.70;74.24;100538.13;18421718;32;20141;-57
2023/01/08 10:02:00;;;;;;;1.20;1.20;;;;;;;7.62;74.45;100519.81;18421293;32;20138;-57
2023/01/08 10:12:05;;;;;;;1.60;1.25;;;;;;;7.54;75.24;100493.75;18421405;32;20157;-58
2023/01/08 10:22:11;;;;;;;1.80;1.70;;;;;;;8.84;70.16;100459.41;18421173;32;20132;-57
2023/01/08 10:32:17;;;;;;;0.80;0.80;;;;;;;9.12;68.71;100449.97;18420696;32;20858;-58
2023/01/08 10:42:22;;;;;;;0.80;0.80;;;;;;;8.27;70.54;100434.69;18420388;32;20089;-57
2023/01/08 10:52:30;;;;;;;2.15;1.15;;;;;;;8.89;68.88;100418.62;18419814;32;20186;-57
2023/01/08 11:02:35;;;;;;;1.20;1.12;;;;;;;8.41;70.36;100420.94;18419245;32;20388;-58
2023/01/08 11:12:42;;;;;;;0.93;0.93;;;;;;;9.16;67.91;100404.00;18418909;32;20085;-58
2023/01/08 11:22:45;;;;;;;2.00;1.77;;;;;;;10.17;65.48;100379.81;18418251;32;20105;-58
2023/01/08 11:32:54;;;;;;;0.90;0.90;;;;;;;9.71;66.33;100356.31;18417322;32;20098;-58
2023/01/08 11:43:12;;;;;;;0.45;0.45;;;;;;;10.13;64.84;100339.81;18418602;32;20120;-58
2023/01/08 11:53:24;;;;;;;2.87;2.12;;;;;;;10.63;63.32;100322.34;18416832;32;20105;-58
2023/01/08 12:03:31;;;;;;;0.98;0.98;;;;;;;11.30;62.21;100300.22;18414246;32;20145;-58
2023/01/08 12:13:49;;;;;;;3.70;2.25;;;;;;;10.00;64.19;100297.22;18425007;32;20111;-58
2023/01/08 12:24:15;;;;;;;1.40;1.37;;;;;;;8.85;69.17;100303.19;18424467;32;20089;-58
2023/01/08 12:34:23;;;;;;;1.40;1.10;;;;;;;9.47;66.71;100305.06;18425335;32;20089;-58
2023/01/08 12:44:29;;;;;;;1.80;1.58;;;;;;;9.65;66.74;100312.03;18425247;32;20081;-58
2023/01/08 12:54:36;;;;;;;1.27;1.12;;;;;;;9.05;68.31;100304.13;18424650;32;20093;-58
2023/01/08 13:04:41;;;;;;;1.45;1.33;;;;;;;10.19;64.88;100289.38;18424355;32;20088;-58
2023/01/08 13:14:48;;;;;;;1.10;1.10;;;;;;;10.49;63.91;100293.66;18422747;32;20381;-58
2023/01/08 13:24:51;;;;;;;1.20;1.20;;;;;;;10.36;64.14;100284.09;18423480;32;20100;-58
2023/01/08 13:35:18;;;;;;;0.80;0.80;;;;;;;9.92;65.38;100280.72;18423091;32;20441;-58
2023/01/08 13:45:27;;;;;;;3.60;2.95;;;;;;;9.95;65.09;100271.16;18424114;31;20153;-58
2023/01/08 13:55:34;;;;;;;2.65;1.80;;;;;;;9.92;65.81;100271.16;18421995;31;20102;-59
2023/01/08 14:05:38;;;;;;;4.68;1.75;;;;;;;10.10;65.31;100271.97;18421659;32;20097;-58
2023/01/08 14:15:42;;;;;;;2.95;1.23;;;;;;;9.93;66.17;100275.50;18422344;32;20082;-58
2023/01/08 14:25:47;;;;;;;1.98;1.87;;;;;;;9.89;66.33;100276.38;18420609;32;20191;-58
2023/01/08 14:35:53;;;;;;;1.45;1.37;;;;;;;9.83;67.07;100269.44;18421451;32;20116;-58
2023/01/08 14:45:58;;;;;;;1.75;1.12;;;;;;;9.92;67.04;100267.69;18420307;32;20435;-58
2023/01/08 14:56:04;;;;;;;4.55;2.25;;;;;;;10.06;66.78;100245.06;18420107;31;20097;-58
2023/01/08 15:06:10;;;;;;;6.75;3.25;;;;;;;10.09;67.11;100245.06;18419239;32;20117;-58
2023/01/08 15:16:18;;;;;;;3.47;2.53;;;;;;;10.10;67.18;100244.19;18418751;32;20092;-58
2023/01/08 15:26:21;;;;;;;3.70;2.72;;;;;;;10.03;67.51;100239.00;18419310;32;20081;-58
2023/01/08 15:36:26;;;;;;;4.40;2.75;;;;;;;10.31;66.84;100228.47;18417772;32;20178;-58
2023/01/08 15:46:29;;;;;;;13.93;10.90;;;;;;;10.37;66.56;100224.09;18425675;32;20472;-58
2023/01/08 15:56:34;;;;;;;19.60;10.38;;;;;;;10.54;66.25;100212.75;18426518;31;20104;-58
2023/01/08 16:06:37;;;;;;;2.40;2.20;;;;;;;10.31;66.97;100198.00;18426434;32;20148;-58
2023/01/08 16:16:42;;;;;;;0.93;0.93;;;;;;;10.31;67.13;100192.78;18425913;32;20111;-58
2023/01/08 16:26:45;;;;;;;3.30;3.05;;;;;;;10.33;67.00;100193.66;18426848;32;20097;-58
2023/01/08 16:36:50;;;;;;;0.95;0.93;;;;;;;10.45;66.77;100184.94;18425263;32;20101;-58
2023/01/08 16:46:53;;;;;;;2.45;1.73;;;;;;;10.55;66.61;100180.53;18425033;32;20097;-58
2023/01/08 16:56:57;;;;;;;1.08;1.08;;;;;;;10.45;66.92;100171.88;18424172;31;20446;-58
2023/01/08 17:07:02;;;;;;;0.88;0.88;;;;;;;10.54;66.63;100173.59;18424275;32;20089;-58
2023/01/08 17:17:06;;;;;;;2.65;1.33;;;;;;;10.58;66.44;100158.78;18424806;32;20101;-58
2023/01/08 17:27:10;;;;;;;4.80;2.85;;;;;;;10.47;66.95;100146.63;18423413;32;20115;-59
2023/01/08 17:37:15;;;;;;;11.80;1.52;;;;;;;10.57;66.74;100147.47;18422996;32;20116;-58
2023/01/08 17:47:19;;;;;;;1.42;1.33;;;;;;;10.59;66.78;100144.84;18423616;32;20097;-58
2023/01/08 17:57:25;;;;;;;2.62;2.40;;;;;;;10.61;66.72;100143.09;18420262;31;20441;-58
2023/01/08 18:07:28;;;;;;;0.60;0.60;;;;;;;10.59;66.89;100130.03;18421010;32;20101;-58
2023/01/08 18:17:33;;;;;;;2.42;2.15;;;;;;;10.57;66.89;100125.69;18420916;32;20089;-58
2023/01/08 18:27:36;;;;;;;0.68;0.68;;;;;;;10.57;66.69;100117.88;18415097;32;20113;-58
2023/01/08 18:37:41;;;;;;;2.33;1.52;;;;;;;10.69;66.30;100121.25;18367643;32;20086;-58
2023/01/08 18:47:44;;;;;;;0.98;0.98;;;;;;;10.63;66.32;100131.78;18378130;32;20104;-58
2023/01/08 18:57:50;;;;;;;2.03;1.87;;;;;;;10.60;66.50;100125.69;18394391;31;20463;-58
2023/01/08 19:07:53;;;;;;;0.82;0.82;;;;;;;10.63;66.38;100113.50;18385164;31;20117;-59
2023/01/08 19:17:58;;;;;;;1.92;1.70;;;;;;;10.68;65.96;100110.84;18403827;32;20411;-58
2023/01/08 19:28:01;;;;;;;2.83;1.25;;;;;;;10.69;65.90;100108.22;18389302;32;20089;-58
2023/01/08 19:38:06;;;;;;;2.05;1.85;;;;;;;10.77;65.72;100102.06;18375221;32;20413;-59
2023/01/08 19:48:10;;;;;;;2.72;2.53;;;;;;;10.64;66.06;100090.84;18375173;32;20139;-59
2023/01/08 19:58:15;;;;;;;1.73;1.62;;;;;;;10.71;65.73;100091.66;18348899;31;167060;-58
2023/01/08 20:08:19;;;;;;;1.05;0.95;;;;;;;10.65;65.88;100083.03;18374605;32;20107;-59
2023/01/08 20:18:24;;;;;;;1.08;0.90;;;;;;;10.53;66.15;100076.12;18378488;32;20174;-59
2023/01/08 20:28:28;;;;;;;0.55;0.55;;;;;;;10.63;65.83;100074.34;18353945;32;20109;-58
2023/01/08 20:38:32;;;;;;;1.48;1.35;;;;;;;10.55;65.98;100065.69;18357961;32;20089;-58
2023/01/08 20:48:36;;;;;;;3.75;1.67;;;;;;;10.44;66.12;100059.69;18358854;32;20113;-58
2023/01/08 20:58:51;;;;;;;1.80;1.55;;;;;;;10.41;66.04;100053.59;18358355;31;20388;-58
2023/01/08 21:08:55;;;;;;;1.08;1.08;;;;;;;10.38;66.04;100042.28;18356972;32;20097;-58
2023/01/08 21:19:00;;;;;;;1.65;1.20;;;;;;;10.36;66.03;100037.09;18356528;32;20442;-58
2023/01/08 21:29:04;;;;;;;4.35;3.15;;;;;;;10.25;66.36;100037.16;18356206;32;20195;-58
2023/01/08 21:39:10;;;;;;;2.53;2.10;;;;;;;9.92;66.87;100020.84;18354622;32;20453;-58
2023/01/08 21:49:13;;;;;;;5.10;2.92;;;;;;;9.87;66.02;100024.38;18356663;32;20330;-58
2023/01/08 21:59:18;;;;;;;2.30;2.20;;;;;;;9.67;65.39;100010.53;18364104;32;20459;-58
2023/01/08 22:09:21;;;;;;;1.83;1.73;;;;;;;9.40;65.38;100008.94;18384101;32;20085;-58
2023/01/08 22:19:26;;;;;;;4.43;2.92;;;;;;;9.02;65.91;99998.63;18398508;32;20093;-58
2023/01/08 22:29:29;;;;;;;1.08;1.08;;;;;;;8.49;68.19;99990.00;18418017;32;20107;-59
2023/01/08 22:39:33;;;;;;;6.95;2.35;;;;;;;8.66;67.40;99978.72;18418466;32;20094;-58
2023/01/08 22:49:37;;;;;;;6.93;2.20;;;;;;;8.58;67.53;99978.72;18416644;32;20141;-58
2023/01/08 22:59:41;;;;;;;0.57;0.57;;;;;;;8.49;67.03;99952.69;18416498;31;20105;-58
2023/01/08 23:09:45;;;;;;;1.52;1.42;;;;;;;8.32;67.98;99943.16;18417236;32;20115;-58
2023/01/08 23:19:50;;;;;;;0.75;0.75;;;;;;;7.97;69.43;99936.22;18415167;32;20097;-58
2023/01/08 23:29:53;;;;;;;1.60;1.17;;;;;;;8.29;69.99;99922.34;18415037;32;20111;-58
2023/01/08 23:39:58;;;;;;;1.35;1.02;;;;;;;8.70;68.45;99918.00;18414686;32;20501;-58
2023/01/08 23:50:01;;;;;;;2.33;1.67;;;;;;;8.69;68.27;99911.91;18414133;32;20140;-58
